Time;durP1;ratioP1;P1;durP2;ratioP2;P2;SDS_P1;SDS_P2;PMS_P1;PMS_P2;Temp;Humidity;BMP_temperature;BMP_pressure;BME280_temperature;BME280_humidity;BME280_pressure;Samples;Min_cycle;Max_cycle;Signal;HPM_P1;HPM_P2
2023/07/30 00:01:48;;;;;;;18.55;8.13;;;17.40;99.90;;;;;;5006652;28;20052;-59
2023/07/30 00:04:13;;;;;;;20.45;7.30;;;17.30;99.90;;;;;;5018851;28;20501;-60
2023/07/30 00:06:39;;;;;;;22.08;7.18;;;17.30;99.90;;;;;;5017238;28;20081;-60
2023/07/30 00:09:05;;;;;;;18.50;6.90;;;17.30;99.90;;;;;;5015389;28;20030;-59
2023/07/30 00:11:30;;;;;;;21.80;8.32;;;17.30;99.90;;;;;;5006719;28;20096;-60
2023/07/30 00:13:56;;;;;;;24.17;6.75;;;17.30;99.90;;;;;;4987007;28;20049;-60
2023/07/30 00:16:22;;;;;;;24.85;7.82;;;17.20;99.90;;;;;;5005490;28;20509;-60
2023/07/30 00:18:47;;;;;;;29.95;8.68;;;17.20;99.90;;;;;;5013789;28;20033;-59
2023/07/30 00:21:13;;;;;;;20.50;7.90;;;17.20;99.90;;;;;;5014017;28;20093;-60
2023/07/30 00:23:39;;;;;;;20.80;7.45;;;17.20;99.90;;;;;;4991052;28;20129;-59
2023/07/30 00:26:04;;;;;;;23.88;7.70;;;17.20;99.90;;;;;;5003918;28;20461;-59
2023/07/30 00:28:30;;;;;;;22.23;7.20;;;17.10;99.90;;;;;;5010886;28;20062;-58
2023/07/30 00:30:56;;;;;;;22.85;8.02;;;17.10;99.90;;;;;;5012930;28;20096;-59
2023/07/30 00:33:21;;;;;;;19.23;6.70;;;17.10;99.90;;;;;;5011342;28;20120;-57
2023/07/30 00:35:50;;;;;;;24.77;8.57;;;17.10;99.90;;;;;;5010105;28;20038;-58
2023/07/30 00:38:16;;;;;;;23.38;7.63;;;17.10;99.90;;;;;;5008075;28;20057;-58
2023/07/30 00:40:41;;;;;;;21.75;6.93;;;17.10;99.90;;;;;;4990831;28;20041;-58
2023/07/30 00:43:07;;;;;;;24.10;7.43;;;17.10;99.90;;;;;;5014059;28;20041;-59
2023/07/30 00:45:34;;;;;;;22.23;7.28;;;17.10;99.90;;;;;;5014534;28;20124;-58
2023/07/30 00:48:00;;;;;;;22.27;7.05;;;17.10;99.90;;;;;;5014854;28;20124;-59
2023/07/30 00:50:26;;;;;;;23.35;8.25;;;17.10;99.90;;;;;;5015170;28;20046;-60
2023/07/30 00:52:52;;;;;;;23.38;8.40;;;17.10;99.90;;;;;;5009676;28;20034;-58
2023/07/30 00:55:18;;;;;;;24.92;7.75;;;17.00;99.90;;;;;;5000345;28;20037;-59
2023/07/30 00:57:44;;;;;;;24.40;7.63;;;17.00;99.90;;;;;;5009148;28;20050;-58
2023/07/30 01:00:11;;;;;;;21.48;7.20;;;17.00;99.90;;;;;;5014326;28;20065;-59
2023/07/30 01:02:37;;;;;;;27.30;8.07;;;17.00;99.90;;;;;;5007924;28;20030;-59
2023/07/30 01:05:03;;;;;;;22.52;7.68;;;17.00;99.90;;;;;;5014912;28;20076;-59
2023/07/30 01:07:32;;;;;;;24.20;7.40;;;17.00;99.90;;;;;;5006553;28;20050;-57
2023/07/30 01:10:00;;;;;;;28.00;8.23;;;17.00;99.90;;;;;;5015857;28;20088;-59
2023/07/30 01:12:27;;;;;;;28.08;8.10;;;17.10;99.90;;;;;;5016430;28;20538;-60
2023/07/30 01:14:55;;;;;;;34.17;9.00;;;17.10;99.90;;;;;;4988243;28;20042;-59
2023/07/30 01:17:22;;;;;;;24.23;7.32;;;17.10;99.90;;;;;;5011326;28;20066;-59
2023/07/30 01:19:54;;;;;;;33.47;8.55;;;17.10;99.90;;;;;;4991439;28;20593;-58
2023/07/30 01:22:20;;;;;;;31.23;8.30;;;17.10;99.90;;;;;;5004219;28;20061;-58
2023/07/30 01:24:46;;;;;;;27.35;7.68;;;17.10;99.90;;;;;;5004151;28;20106;-58
2023/07/30 01:27:21;;;;;;;28.85;7.43;;;17.20;99.90;;;;;;5013817;28;20041;-58
2023/07/30 01:29:59;;;;;;;26.10;7.35;;;17.20;99.90;;;;;;5007322;28;20401;-59
2023/07/30 01:32:28;;;;;;;19.83;6.82;;;17.20;99.90;;;;;;5010134;28;20486;-59
2023/07/30 01:34:56;;;;;;;23.02;7.38;;;17.20;99.90;;;;;;4996984;28;20396;-59
2023/07/30 01:37:23;;;;;;;24.77;6.88;;;17.30;99.90;;;;;;5021443;28;20036;-59
2023/07/30 01:39:49;;;;;;;22.30;6.63;;;17.30;99.90;;;;;;5006690;28;20046;-59
2023/07/30 01:42:16;;;;;;;24.58;7.25;;;17.30;99.90;;;;;;5007971;28;20034;-60
2023/07/30 01:44:41;;;;;;;19.17;6.25;;;17.40;99.90;;;;;;4989687;28;20053;-59
2023/07/30 01:47:07;;;;;;;24.70;6.95;;;17.40;99.90;;;;;;4991710;28;20497;-59
2023/07/30 01:49:33;;;;;;;24.35;6.85;;;17.40;99.90;;;;;;5015439;28;20041;-57
2023/07/30 01:51:59;;;;;;;22.70;7.35;;;17.40;99.90;;;;;;5006573;28;20472;-59
2023/07/30 01:54:25;;;;;;;22.00;6.38;;;17.40;99.90;;;;;;4992501;28;20095;-59
2023/07/30 01:56:53;;;;;;;22.63;6.32;;;17.40;99.90;;;;;;5013998;28;20172;-59
2023/07/30 01:59:18;;;;;;;24.08;6.10;;;17.40;99.90;;;;;;4998628;28;20433;-59
2023/07/30 02:01:44;;;;;;;28.40;7.15;;;17.30;99.90;;;;;;5013413;28;20048;-59
2023/07/30 02:04:10;;;;;;;29.15;6.95;;;17.30;99.90;;;;;;5011751;28;20034;-59
2023/07/30 02:06:36;;;;;;;26.08;6.43;;;17.30;99.90;;;;;;5006565;28;20052;-58
2023/07/30 02:09:02;;;;;;;29.25;6.78;;;17.30;99.90;;;;;;4993256;28;20069;-59
2023/07/30 02:11:28;;;;;;;28.40;7.70;;;17.40;99.90;;;;;;5015541;28;20038;-58
2023/07/30 02:13:54;;;;;;;29.17;7.55;;;17.30;99.90;;;;;;5012195;28;20093;-59
2023/07/30 02:16:20;;;;;;;28.67;7.32;;;17.30;99.90;;;;;;4974863;28;20073;-59
2023/07/30 02:18:46;;;;;;;25.73;6.97;;;17.30;99.90;;;;;;5015678;28;20065;-58
2023/07/30 02:21:12;;;;;;;22.33;6.72;;;17.30;99.90;;;;;;4989726;28;20049;-59
2023/07/30 02:23:38;;;;;;;29.63;7.93;;;17.20;99.90;;;;;;5010096;28;20034;-59
2023/07/30 02:26:04;;;;;;;24.73;7.28;;;17.20;99.90;;;;;;4995120;28;20405;-59
2023/07/30 02:28:29;;;;;;;27.13;6.65;;;17.30;99.90;;;;;;4991999;28;20045;-57
2023/07/30 02:30:55;;;;;;;29.85;7.30;;;17.30;99.90;;;;;;5009653;28;20042;-59
2023/07/30 02:33:20;;;;;;;28.60;7.82;;;17.20;99.90;;;;;;5008715;28;20287;-59
2023/07/30 02:35:46;;;;;;;22.10;5.68;;;17.20;99.90;;;;;;4990599;28;20053;-59
2023/07/30 02:38:12;;;;;;;25.02;7.43;;;17.20;99.90;;;;;;5010250;28;20095;-59
2023/07/30 02:40:38;;;;;;;25.20;6.55;;;17.20;99.90;;;;;;5009808;28;20042;-58
2023/07/30 02:43:03;;;;;;;27.55;7.65;;;17.20;99.90;;;;;;4990849;28;20042;-59
2023/07/30 02:45:29;;;;;;;26.27;6.72;;;17.20;99.90;;;;;;4980911;28;20038;-59
2023/07/30 02:47:55;;;;;;;23.88;5.80;;;17.20;99.90;;;;;;4988712;28;20034;-59
2023/07/30 02:50:21;;;;;;;28.05;6.78;;;17.20;99.90;;;;;;5010018;28;20045;-58
2023/07/30 02:52:46;;;;;;;23.17;6.07;;;17.20;99.90;;;;;;5016456;28;20044;-58
2023/07/30 02:55:12;;;;;;;25.35;7.25;;;17.20;99.90;;;;;;5012985;28;20044;-59
2023/07/30 02:57:38;;;;;;;17.50;5.80;;;17.10;99.90;;;;;;5005426;28;20489;-59
2023/07/30 03:00:04;;;;;;;22.30;5.80;;;17.10;99.90;;;;;;4999117;28;20045;-58
2023/07/30 03:02:30;;;;;;;21.75;5.93;;;17.10;99.90;;;;;;5004961;28;20096;-59
2023/07/30 03:04:56;;;;;;;26.83;6.82;;;17.10;99.90;;;;;;5011272;28;20456;-59
2023/07/30 03:07:22;;;;;;;22.15;6.75;;;17.10;99.90;;;;;;4992265;28;20038;-58
2023/07/30 03:09:48;;;;;;;24.00;6.57;;;17.10;99.90;;;;;;4998660;28;20037;-59
2023/07/30 03:12:13;;;;;;;20.08;7.28;;;17.10;99.90;;;;;;5013781;28;20041;-59
2023/07/30 03:14:39;;;;;;;28.52;7.20;;;17.10;99.90;;;;;;5017996;28;20121;-59
2023/07/30 03:17:05;;;;;;;25.35;5.70;;;17.10;99.90;;;;;;5009425;28;20041;-59
2023/07/30 03:19:31;;;;;;;17.38;5.30;;;17.00;99.90;;;;;;5018763;28;20049;-59
2023/07/30 03:21:57;;;;;;;23.13;6.68;;;17.00;99.90;;;;;;4989284;28;20044;-59
2023/07/30 03:24:22;;;;;;;18.70;5.35;;;17.00;99.90;;;;;;5018201;28;20128;-58
2023/07/30 03:26:48;;;;;;;16.90;5.32;;;17.00;99.90;;;;;;5008112;28;20080;-59
2023/07/30 03:29:15;;;;;;;23.00;6.00;;;17.00;99.90;;;;;;5004553;28;20049;-59
2023/07/30 03:31:40;;;;;;;18.38;5.13;;;17.00;99.90;;;;;;4994816;28;20046;-58
2023/07/30 03:34:06;;;;;;;19.40;6.00;;;17.00;99.90;;;;;;5012015;28;20053;-59
2023/07/30 03:36:32;;;;;;;19.70;6.22;;;17.00;99.90;;;;;;5013327;28;20121;-59
2023/07/30 03:38:58;;;;;;;22.42;5.95;;;17.00;99.90;;;;;;5006616;28;20422;-59
2023/07/30 03:41:23;;;;;;;27.42;6.18;;;17.00;99.90;;;;;;5010692;28;20054;-58
2023/07/30 03:43:49;;;;;;;20.83;5.78;;;17.00;99.90;;;;;;5006036;28;20705;-59
2023/07/30 03:46:15;;;;;;;26.45;6.00;;;17.00;99.90;;;;;;5012587;28;20030;-59
2023/07/30 03:48:40;;;;;;;18.38;5.40;;;17.00;99.90;;;;;;5004894;28;20125;-59
2023/07/30 03:51:07;;;;;;;23.60;6.05;;;17.00;99.90;;;;;;5007096;28;20493;-59
2023/07/30 03:53:33;;;;;;;18.23;5.38;;;17.00;99.90;;;;;;5004863;28;20049;-58
2023/07/30 03:55:58;;;;;;;15.18;4.90;;;17.00;99.90;;;;;;5006720;28;20045;-58
2023/07/30 03:58:24;;;;;;;17.92;4.70;;;17.00;99.90;;;;;;5004132;28;20049;-59
2023/07/30 04:00:50;;;;;;;17.13;4.93;;;17.00;99.90;;;;;;5009584;28;20126;-58
2023/07/30 04:03:15;;;;;;;14.05;5.22;;;17.00;99.90;;;;;;5007445;28;20042;-58
2023/07/30 04:05:41;;;;;;;14.35;5.18;;;17.00;99.90;;;;;;5015324;28;20045;-59
2023/07/30 04:08:07;;;;;;;15.95;5.30;;;17.00;99.90;;;;;;5017717;28;20045;-58
2023/07/30 04:10:32;;;;;;;20.10;4.68;;;17.00;99.90;;;;;;5009507;28;20150;-59
2023/07/30 04:12:59;;;;;;;22.45;5.47;;;17.00;99.90;;;;;;5011964;28;20050;-58
2023/07/30 04:15:25;;;;;;;25.20;6.25;;;16.90;99.90;;;;;;5013083;28;20059;-60
2023/07/30 04:17:51;;;;;;;20.95;5.50;;;17.00;99.90;;;;;;4990360;28;20460;-58
2023/07/30 04:20:17;;;;;;;19.13;5.15;;;17.00;99.90;;;;;;5009582;28;20093;-59
2023/07/30 04:22:44;;;;;;;23.73;5.43;;;16.90;99.90;;;;;;4990665;28;20397;-59
2023/07/30 04:25:13;;;;;;;22.70;4.32;;;17.00;99.90;;;;;;5022267;28;20505;-59
2023/07/30 04:27:38;;;;;;;17.92;4.53;;;17.00;99.90;;;;;;5021076;28;20371;-59
2023/07/30 04:30:07;;;;;;;14.73;3.83;;;17.00;99.90;;;;;;4989677;28;20052;-59
2023/07/30 04:32:33;;;;;;;15.95;3.65;;;17.00;99.90;;;;;;4994657;28;20060;-59
2023/07/30 04:35:01;;;;;;;13.30;3.40;;;17.00;99.90;;;;;;5007688;28;20049;-59
2023/07/30 04:37:26;;;;;;;11.27;3.83;;;17.00;99.90;;;;;;5014644;28;20104;-59
2023/07/30 04:39:52;;;;;;;10.95;3.38;;;17.00;99.90;;;;;;4999880;28;20046;-59
2023/07/30 04:42:18;;;;;;;10.18;2.90;;;17.00;99.90;;;;;;5014319;28;20041;-59
2023/07/30 04:44:44;;;;;;;17.95;3.55;;;17.00;99.90;;;;;;5013368;28;20029;-59
2023/07/30 04:47:09;;;;;;;10.50;3.28;;;17.00;99.90;;;;;;5008350;28;20418;-59
2023/07/30 04:49:37;;;;;;;12.73;2.72;;;17.00;99.90;;;;;;5009559;28;20069;-58
2023/07/30 04:52:03;;;;;;;11.07;2.35;;;17.00;99.90;;;;;;4991101;28;20041;-59
2023/07/30 04:54:29;;;;;;;10.60;3.25;;;17.00;99.90;;;;;;5014690;28;20034;-58
2023/07/30 04:56:54;;;;;;;12.02;2.88;;;17.10;99.90;;;;;;5010416;28;20444;-58
2023/07/30 04:59:20;;;;;;;12.85;2.42;;;17.10;99.90;;;;;;5009601;28;20040;-58
2023/07/30 05:01:46;;;;;;;9.52;2.67;;;17.10;99.90;;;;;;5009486;28;20060;-59
2023/07/30 05:04:12;;;;;;;9.90;2.28;;;17.10;99.90;;;;;;4994610;28;20097;-58
2023/07/30 05:06:37;;;;;;;12.25;2.85;;;17.10;99.90;;;;;;5005559;28;20026;-58
2023/07/30 05:09:03;;;;;;;11.00;2.40;;;17.20;99.90;;;;;;5009695;28;20034;-59
2023/07/30 05:11:29;;;;;;;14.27;3.20;;;17.20;99.90;;;;;;4991179;28;20116;-58
2023/07/30 05:13:55;;;;;;;9.82;2.20;;;17.20;99.90;;;;;;5011725;28;20057;-59
2023/07/30 05:16:20;;;;;;;10.68;2.05;;;17.30;99.90;;;;;;5011110;28;20034;-59
2023/07/30 05:18:46;;;;;;;14.48;2.60;;;17.30;99.90;;;;;;5012647;28;20040;-59
2023/07/30 05:21:12;;;;;;;8.05;2.13;;;17.30;99.90;;;;;;5007610;28;20538;-58
2023/07/30 05:23:38;;;;;;;12.65;2.30;;;17.30;99.90;;;;;;5010202;28;20088;-58
2023/07/30 05:26:04;;;;;;;11.15;2.58;;;17.40;99.90;;;;;;5014211;28;20065;-59
2023/07/30 05:28:29;;;;;;;11.43;2.97;;;17.30;99.90;;;;;;5014264;28;20052;-59
2023/07/30 05:30:55;;;;;;;7.70;2.85;;;17.40;99.90;;;;;;5000091;28;20054;-59
2023/07/30 05:33:21;;;;;;;13.18;2.80;;;17.40;99.90;;;;;;5017209;28;20033;-59
2023/07/30 05:35:47;;;;;;;11.23;2.72;;;17.40;99.90;;;;;;5008847;28;20038;-58
2023/07/30 05:38:13;;;;;;;9.88;2.08;;;17.50;99.90;;;;;;5007976;28;20120;-58
2023/07/30 05:40:41;;;;;;;14.18;3.15;;;17.50;99.90;;;;;;5014775;28;20129;-59
2023/07/30 05:43:07;;;;;;;10.48;2.83;;;17.50;99.90;;;;;;5018041;28;20505;-58
2023/07/30 05:45:34;;;;;;;10.88;3.13;;;17.50;99.90;;;;;;5017359;28;20065;-59
2023/07/30 05:48:00;;;;;;;11.48;2.30;;;17.50;99.90;;;;;;5009645;28;20053;-59
2023/07/30 05:50:25;;;;;;;10.73;2.10;;;17.50;99.90;;;;;;5020914;28;20046;-59
2023/07/30 05:52:51;;;;;;;10.95;2.75;;;17.50;99.90;;;;;;5011570;28;20038;-58
2023/07/30 05:55:17;;;;;;;8.80;2.33;;;17.60;99.90;;;;;;5017657;28;20034;-59
2023/07/30 05:57:42;;;;;;;12.43;3.05;;;17.60;99.90;;;;;;5013632;28;20033;-59
2023/07/30 06:00:08;;;;;;;10.48;2.30;;;17.60;99.90;;;;;;4984847;28;20129;-58
2023/07/30 06:02:34;;;;;;;17.02;3.00;;;17.60;99.90;;;;;;5009186;28;20048;-58
2023/07/30 06:05:00;;;;;;;9.15;2.40;;;17.60;99.90;;;;;;4996883;28;20116;-59
2023/07/30 06:07:26;;;;;;;22.20;3.88;;;17.60;99.90;;;;;;5010505;28;20038;-57
2023/07/30 06:09:51;;;;;;;12.60;2.90;;;17.60;99.90;;;;;;5010212;28;20030;-59
2023/07/30 06:12:17;;;;;;;12.60;2.75;;;17.60;99.90;;;;;;4999225;28;20623;-59
2023/07/30 06:14:42;;;;;;;9.25;2.97;;;17.70;99.90;;;;;;4989084;28;20453;-59
2023/07/30 06:17:08;;;;;;;21.17;4.63;;;17.60;99.90;;;;;;5011614;28;20225;-59
2023/07/30 06:19:34;;;;;;;10.80;2.55;;;17.60;99.90;;;;;;5010524;28;21833;-59
2023/07/30 06:22:00;;;;;;;14.80;4.32;;;17.60;99.90;;;;;;5016625;28;20654;-59
2023/07/30 06:24:26;;;;;;;14.50;2.97;;;17.70;99.90;;;;;;5007542;28;20108;-59
2023/07/30 06:26:51;;;;;;;13.88;3.17;;;17.70;99.90;;;;;;5011140;28;20061;-59
2023/07/30 06:29:17;;;;;;;12.98;3.25;;;17.70;99.90;;;;;;4995259;28;20624;-59
2023/07/30 06:31:43;;;;;;;14.18;2.92;;;17.70;99.90;;;;;;5013890;28;20053;-58
2023/07/30 06:34:08;;;;;;;11.90;3.08;;;17.60;99.90;;;;;;5013913;28;20034;-59
2023/07/30 06:36:34;;;;;;;11.48;2.90;;;17.70;99.90;;;;;;5012106;28;20045;-58
2023/07/30 06:39:00;;;;;;;11.95;3.03;;;17.70;99.90;;;;;;5009609;28;20394;-57
2023/07/30 06:41:25;;;;;;;11.77;2.60;;;17.90;99.90;;;;;;5004159;28;20041;-58
2023/07/30 06:43:51;;;;;;;10.40;2.85;;;18.00;99.90;;;;;;5019315;28;20535;-59
2023/07/30 06:46:17;;;;;;;14.25;3.53;;;18.10;99.90;;;;;;5015369;28;20034;-59
2023/07/30 06:48:42;;;;;;;11.40;2.78;;;18.20;99.90;;;;;;4970410;28;20042;-59
2023/07/30 06:51:10;;;;;;;12.30;3.60;;;18.20;99.90;;;;;;5011264;28;20045;-59
2023/07/30 06:53:35;;;;;;;13.18;3.85;;;18.30;99.90;;;;;;5009992;28;20076;-59
2023/07/30 06:56:01;;;;;;;11.00;2.65;;;18.40;99.90;;;;;;4988626;28;20612;-59
2023/07/30 06:58:27;;;;;;;13.43;3.03;;;18.50;99.90;;;;;;5003679;28;20516;-58
2023/07/30 07:00:52;;;;;;;16.05;3.53;;;18.60;99.90;;;;;;5003878;28;20050;-59
2023/07/30 07:03:18;;;;;;;11.23;2.83;;;18.70;99.90;;;;;;4996324;28;20049;-59
2023/07/30 07:05:44;;;;;;;12.52;3.38;;;18.70;99.90;;;;;;4992577;28;20038;-59
2023/07/30 07:08:09;;;;;;;13.82;4.10;;;18.90;99.90;;;;;;5009109;28;20061;-59
2023/07/30 07:10:35;;;;;;;16.92;2.92;;;18.90;99.90;;;;;;5010905;28;20045;-58
2023/07/30 07:13:01;;;;;;;11.05;3.00;;;19.00;99.90;;;;;;5011294;28;20401;-58
2023/07/30 07:15:26;;;;;;;15.32;2.83;;;19.00;99.90;;;;;;4993762;28;20041;-59
2023/07/30 07:17:52;;;;;;;11.75;2.88;;;18.80;99.90;;;;;;5022323;28;20049;-59
2023/07/30 07:20:18;;;;;;;9.30;2.78;;;18.80;99.90;;;;;;5012345;28;20046;-60
2023/07/30 07:22:43;;;;;;;10.45;2.60;;;18.70;99.90;;;;;;5011270;28;20084;-60
2023/07/30 07:25:10;;;;;;;9.82;2.50;;;18.70;99.90;;;;;;5015638;28;20387;-61
2023/07/30 07:27:35;;;;;;;9.85;2.20;;;18.70;99.90;;;;;;5012132;28;20073;-61
2023/07/30 07:30:01;;;;;;;12.40;2.83;;;18.60;99.90;;;;;;5014549;28;20033;-60
2023/07/30 07:32:27;;;;;;;8.77;2.83;;;18.60;99.90;;;;;;5008490;28;20066;-61
2023/07/30 07:34:53;;;;;;;7.90;2.60;;;18.60;99.90;;;;;;5013668;28;20038;-61
2023/07/30 07:37:18;;;;;;;11.35;2.75;;;18.60;99.90;;;;;;5009096;28;20042;-57
2023/07/30 07:39:45;;;;;;;17.55;3.00;;;18.60;99.90;;;;;;5008488;28;20545;-61
2023/07/30 07:42:11;;;;;;;11.23;2.67;;;18.50;99.90;;;;;;4985580;28;20084;-59
2023/07/30 07:44:37;;;;;;;11.65;2.85;;;18.40;99.90;;;;;;4998009;28;20041;-59
2023/07/30 07:47:03;;;;;;;11.48;2.47;;;18.40;99.90;;;;;;4991845;28;20117;-60
2023/07/30 07:49:29;;;;;;;13.77;2.78;;;18.40;99.90;;;;;;4986465;28;20045;-60
2023/07/30 07:51:54;;;;;;;10.93;3.08;;;18.30;99.90;;;;;;4995776;28;20383;-62
2023/07/30 07:54:20;;;;;;;11.15;3.13;;;18.40;99.90;;;;;;5012603;28;20041;-60
2023/07/30 07:56:46;;;;;;;13.25;3.35;;;18.40;99.90;;;;;;5004009;28;20459;-61
2023/07/30 07:59:12;;;;;;;15.35;3.35;;;18.40;99.90;;;;;;5008675;28;20165;-61
2023/07/30 08:01:38;;;;;;;15.38;3.08;;;18.40;99.90;;;;;;5012597;28;20146;-61
2023/07/30 08:04:03;;;;;;;10.50;3.20;;;18.40;99.90;;;;;;4995999;28;20041;-62
2023/07/30 08:06:31;;;;;;;11.60;2.85;;;18.50;99.90;;;;;;5007880;28;20042;-62
2023/07/30 08:08:57;;;;;;;12.80;3.28;;;18.50;99.90;;;;;;5005376;28;20038;-61
2023/07/30 08:11:22;;;;;;;13.13;2.50;;;18.60;99.90;;;;;;5009111;28;21090;-64
2023/07/30 08:13:48;;;;;;;16.40;3.53;;;18.60;99.90;;;;;;5006119;28;20127;-62
2023/07/30 08:16:14;;;;;;;10.95;3.08;;;18.70;99.90;;;;;;4978955;28;20042;-63
2023/07/30 08:18:39;;;;;;;15.10;3.10;;;18.70;99.90;;;;;;4999901;28;20044;-60
2023/07/30 08:21:05;;;;;;;15.40;2.85;;;18.80;99.90;;;;;;5007143;28;20034;-60
2023/07/30 08:23:31;;;;;;;10.95;3.13;;;18.70;99.90;;;;;;5011750;28;20544;-61
2023/07/30 08:25:56;;;;;;;11.32;2.42;;;18.70;99.90;;;;;;5005945;28;20033;-63
2023/07/30 08:28:22;;;;;;;15.45;3.20;;;18.70;99.90;;;;;;4989887;28;20041;-61
2023/07/30 08:30:48;;;;;;;8.98;2.63;;;18.70;99.90;;;;;;5008101;28;20108;-60
2023/07/30 08:33:14;;;;;;;11.10;2.33;;;18.60;99.90;;;;;;4970381;28;20071;-60
2023/07/30 08:35:39;;;;;;;10.68;2.70;;;18.40;99.90;;;;;;4988740;28;20045;-60
2023/07/30 08:38:05;;;;;;;14.15;3.50;;;18.40;99.90;;;;;;5002715;28;20474;-61
2023/07/30 08:40:31;;;;;;;11.18;2.70;;;18.10;99.90;;;;;;4992477;28;20069;-61
2023/07/30 08:42:58;;;;;;;10.55;2.60;;;17.90;99.90;;;;;;4986021;28;20041;-60
2023/07/30 08:45:23;;;;;;;10.30;2.90;;;17.70;99.90;;;;;;5004503;28;20544;-61
2023/07/30 08:47:49;;;;;;;13.77;3.03;;;17.50;99.90;;;;;;5000775;28;20084;-61
2023/07/30 08:50:15;;;;;;;7.78;2.00;;;17.50;99.90;;;;;;5005947;28;20041;-61
2023/07/30 08:52:42;;;;;;;6.47;2.00;;;17.40;99.90;;;;;;4988538;28;20045;-61
2023/07/30 08:55:09;;;;;;;14.25;3.83;;;17.40;99.90;;;;;;4987850;28;20065;-60
2023/07/30 08:57:35;;;;;;;7.65;2.05;;;17.50;99.90;;;;;;5002214;28;20134;-61
2023/07/30 09:00:10;;;;;;;13.90;3.15;;;17.50;99.90;;;;;;5009786;28;20101;-62
2023/07/30 09:02:44;;;;;;;10.68;2.80;;;17.70;99.90;;;;;;5007082;28;20617;-64
2023/07/30 09:05:10;;;;;;;11.80;3.13;;;17.90;99.90;;;;;;5011954;28;20049;-62
2023/07/30 09:07:36;;;;;;;12.65;3.33;;;18.20;99.90;;;;;;5013584;28;20034;-60
2023/07/30 09:10:02;;;;;;;12.68;3.03;;;18.40;99.90;;;;;;5013363;28;20527;-61
2023/07/30 09:12:32;;;;;;;13.73;4.07;;;18.60;99.90;;;;;;5011263;28;20053;-63
2023/07/30 09:14:58;;;;;;;9.63;2.92;;;18.60;99.90;;;;;;5011247;28;20042;-61
2023/07/30 09:17:25;;;;;;;13.13;3.15;;;18.70;99.90;;;;;;5004464;28;20052;-61
2023/07/30 09:19:52;;;;;;;10.05;3.00;;;18.70;99.90;;;;;;4997445;28;20050;-61
2023/07/30 09:22:28;;;;;;;11.15;2.78;;;18.70;99.90;;;;;;4994063;28;20029;-62
2023/07/30 09:24:55;;;;;;;10.02;2.63;;;18.70;99.90;;;;;;5007493;28;20049;-61
2023/07/30 09:27:26;;;;;;;7.65;2.92;;;18.80;99.90;;;;;;5013948;28;20045;-61
2023/07/30 09:30:01;;;;;;;7.95;2.28;;;18.80;99.90;;;;;;5014239;28;20443;-61
2023/07/30 09:32:28;;;;;;;10.50;2.22;;;18.70;99.90;;;;;;5012185;28;20073;-60
2023/07/30 09:35:06;;;;;;;14.00;3.85;;;18.80;99.90;;;;;;5010018;28;20867;-61
2023/07/30 09:37:37;;;;;;;10.65;2.80;;;18.90;99.90;;;;;;5005054;28;20176;-61
2023/07/30 09:40:03;;;;;;;14.73;2.95;;;19.10;99.90;;;;;;4990081;28;20231;-61
2023/07/30 09:42:30;;;;;;;10.68;3.15;;;19.30;99.90;;;;;;4989083;28;20045;-60
2023/07/30 09:44:59;;;;;;;11.05;2.28;;;19.50;99.90;;;;;;5002339;28;20336;-62
2023/07/30 09:47:27;;;;;;;9.63;2.40;;;19.60;99.90;;;;;;5009528;28;20493;-59
2023/07/30 09:49:54;;;;;;;7.60;2.80;;;19.40;99.90;;;;;;5006853;28;20056;-60
2023/07/30 09:52:23;;;;;;;12.50;2.67;;;19.40;99.90;;;;;;5012364;28;20037;-58
2023/07/30 09:54:51;;;;;;;9.27;2.40;;;19.60;99.90;;;;;;5004433;28;20039;-60
2023/07/30 09:57:17;;;;;;;13.00;2.42;;;19.70;99.90;;;;;;5011670;28;20432;-60
2023/07/30 09:59:43;;;;;;;8.00;2.45;;;19.40;99.90;;;;;;4991289;28;20045;-61
2023/07/30 10:02:11;;;;;;;11.93;2.70;;;19.40;99.90;;;;;;5005086;28;20041;-63
2023/07/30 10:04:42;;;;;;;12.15;3.15;;;19.40;99.90;;;;;;5012302;28;20050;-61
2023/07/30 10:07:14;;;;;;;11.38;2.97;;;19.10;99.90;;;;;;5000463;28;20034;-62
2023/07/30 10:09:44;;;;;;;9.02;2.65;;;19.30;99.90;;;;;;5005930;28;20042;-61
2023/07/30 10:12:16;;;;;;;11.73;2.38;;;19.50;99.90;;;;;;4980921;28;20096;-60
2023/07/30 10:14:43;;;;;;;9.77;2.28;;;19.70;99.90;;;;;;4984526;28;20559;-61
2023/07/30 10:17:10;;;;;;;9.18;2.40;;;19.80;99.90;;;;;;5005872;28;20049;-59
2023/07/30 10:19:36;;;;;;;9.10;2.90;;;19.90;99.90;;;;;;5002400;28;20525;-62
2023/07/30 10:22:14;;;;;;;14.02;2.67;;;20.30;99.90;;;;;;5001938;28;20040;-62
2023/07/30 10:24:40;;;;;;;11.40;2.38;;;20.20;99.90;;;;;;5007832;28;20088;-62
2023/07/30 10:27:12;;;;;;;10.40;2.80;;;20.00;99.90;;;;;;4983184;28;20049;-63
2023/07/30 10:29:41;;;;;;;11.32;2.55;;;20.10;99.90;;;;;;5003805;28;20077;-62
2023/07/30 10:32:08;;;;;;;12.45;3.03;;;20.10;99.90;;;;;;5003055;28;20045;-64
2023/07/30 10:34:59;;;;;;;8.43;2.35;;;20.10;99.90;;;;;;5003565;28;20509;-60
2023/07/30 10:37:26;;;;;;;9.27;2.30;;;20.30;99.90;;;;;;5003014;28;20061;-60
2023/07/30 10:39:51;;;;;;;11.63;2.45;;;20.50;99.90;;;;;;5006090;28;20519;-61
2023/07/30 10:42:18;;;;;;;11.70;2.50;;;20.60;99.90;;;;;;5006111;28;20189;-61
2023/07/30 10:44:46;;;;;;;9.45;2.42;;;20.80;99.90;;;;;;4985277;28;20307;-60
2023/07/30 10:47:12;;;;;;;10.48;3.00;;;21.00;99.90;;;;;;4995166;28;20042;-61
2023/07/30 10:49:40;;;;;;;12.48;2.53;;;21.10;99.90;;;;;;5007793;28;20057;-61
2023/07/30 10:52:06;;;;;;;6.75;2.13;;;21.30;99.90;;;;;;5004902;28;20042;-61
2023/07/30 10:54:36;;;;;;;8.70;2.10;;;21.30;99.90;;;;;;5011480;28;20048;-61
2023/07/30 10:57:03;;;;;;;10.75;2.05;;;21.40;99.90;;;;;;5006143;28;20175;-61
2023/07/30 10:59:38;;;;;;;9.43;2.70;;;21.20;99.90;;;;;;5003331;28;20525;-61
2023/07/30 11:02:04;;;;;;;12.38;2.50;;;21.10;99.90;;;;;;4999190;28;20767;-61
2023/07/30 11:04:34;;;;;;;11.20;2.45;;;20.40;99.90;;;;;;4978700;28;20049;-61
2023/07/30 11:07:00;;;;;;;11.38;2.60;;;20.60;99.90;;;;;;5007128;28;20041;-61
2023/07/30 11:09:27;;;;;;;12.68;2.88;;;20.60;99.90;;;;;;4989635;28;20037;-62
2023/07/30 11:11:55;;;;;;;9.10;2.42;;;20.40;99.90;;;;;;5013330;28;20163;-60
2023/07/30 11:14:23;;;;;;;10.20;2.17;;;20.60;99.90;;;;;;4992451;28;20054;-61
2023/07/30 11:16:59;;;;;;;9.35;3.03;;;20.80;99.90;;;;;;4985586;28;20309;-63
2023/07/30 11:19:28;;;;;;;11.85;2.75;;;20.90;99.90;;;;;;4964785;28;20052;-63
2023/07/30 11:21:56;;;;;;;9.55;2.20;;;21.20;99.90;;;;;;4992779;28;20141;-61
2023/07/30 11:24:32;;;;;;;12.45;2.22;;;21.10;99.90;;;;;;5004583;28;20133;-61
2023/07/30 11:26:59;;;;;;;6.80;1.70;;;20.80;99.90;;;;;;5010043;28;20400;-61
2023/07/30 11:29:26;;;;;;;6.53;1.80;;;20.40;99.90;;;;;;5004485;28;20065;-63
2023/07/30 11:31:55;;;;;;;8.05;2.13;;;20.40;99.90;;;;;;5003010;28;20404;-61
2023/07/30 11:34:21;;;;;;;8.45;2.30;;;20.60;99.90;;;;;;5002789;28;20453;-62
2023/07/30 11:36:47;;;;;;;5.28;1.63;;;20.60;99.90;;;;;;4985670;28;20061;-61
2023/07/30 11:39:12;;;;;;;10.27;2.30;;;20.80;99.90;;;;;;4988545;28;20047;-61
2023/07/30 11:41:38;;;;;;;10.23;1.90;;;20.90;99.90;;;;;;5007872;28;20658;-62
2023/07/30 11:44:04;;;;;;;9.45;2.25;;;21.10;99.90;;;;;;5007729;28;20132;-62
2023/07/30 11:46:32;;;;;;;9.25;2.33;;;21.20;99.90;;;;;;5006131;28;20400;-65
2023/07/30 11:49:17;;;;;;;9.32;2.33;;;21.10;99.90;;;;;;4997115;28;20045;-60
2023/07/30 11:51:43;;;;;;;7.35;2.15;;;21.00;99.90;;;;;;4984774;28;20042;-62
2023/07/30 11:54:22;;;;;;;9.48;1.98;;;20.80;99.90;;;;;;5002134;28;20042;-61
2023/07/30 11:56:54;;;;;;;9.45;2.88;;;21.10;99.90;;;;;;5007773;28;20041;-60
2023/07/30 11:59:21;;;;;;;11.25;2.50;;;21.30;99.90;;;;;;4985866;28;20046;-61
2023/07/30 12:01:47;;;;;;;9.85;2.05;;;21.00;99.90;;;;;;5005437;28;20041;-61
2023/07/30 12:04:13;;;;;;;9.27;2.22;;;20.80;99.90;;;;;;4995856;28;20025;-62
2023/07/30 12:06:56;;;;;;;7.05;1.63;;;21.00;99.90;;;;;;5011034;28;20041;-64
2023/07/30 12:09:23;;;;;;;;;;;20.70;99.60;;;;;;5005162;28;20605;-61
2023/07/30 12:11:57;;;;;;;7.50;2.42;;;20.70;99.30;;;;;;5005407;28;19980;-62
2023/07/30 12:14:29;;;;;;;7.45;1.45;;;21.20;99.90;;;;;;4971563;28;20037;-61
2023/07/30 12:17:01;;;;;;;4.85;1.48;;;21.40;98.60;;;;;;5001590;28;20076;-64
2023/07/30 12:19:27;;;;;;;8.57;1.95;;;21.10;97.10;;;;;;4989758;28;20515;-61
2023/07/30 12:21:53;;;;;;;6.30;2.30;;;21.30;98.50;;;;;;4999711;28;20080;-63
2023/07/30 12:24:19;;;;;;;5.20;1.60;;;21.30;98.90;;;;;;4995993;28;20041;-64
2023/07/30 12:26:45;;;;;;;6.72;1.55;;;21.60;98.40;;;;;;4972540;28;20042;-61
2023/07/30 12:29:10;;;;;;;6.82;1.73;;;21.70;98.60;;;;;;4966658;28;20050;-61
2023/07/30 12:31:36;;;;;;;8.18;1.90;;;21.90;98.70;;;;;;4994285;28;20050;-63
2023/07/30 12:34:02;;;;;;;10.98;1.90;;;21.60;99.10;;;;;;5002877;28;20037;-64
2023/07/30 12:36:28;;;;;;;8.00;1.50;;;21.80;99.30;;;;;;4968162;28;20054;-63